Latest Weather Observations for Century Mine

IDQ60801

Issued at 5:35 pm EST Sunday 26 October 2014 (issued every 30 minutes, with the page automatically refreshed every 10 minutes)

About weather observations | Map of weather stations | Latest weather observations for QLD | Other Formats
Station Details ID: 029167 Name: CENTURY MINE Lat: -18.76 Lon: 138.71 Height: 126.8 m
Data from the previous 72 hours. | See also: Recent months at Century Mine
Date/Time
EST
Temp
°C
App
Temp
°C
Dew
Point
Rel
Hum
%
Delta-T
°C
Wind Press
QNH
hPa
Press
MSL
hPa
Rain
since 9 am
mm
Dir
 
Spd
km/h
Gust
km/h
Spd
kts
Gust
kts
26/05:30pm 37.7 33.2 2.2 11 18.6 ENE 15 22 8 12 1010.6 1009.8 0.0
26/05:00pm 38.0 33.4 3.7 12 18.4 ENE 17 26 9 14 1010.5 1009.7 0.0
26/04:30pm 38.6 34.1 4.1 12 18.6 ESE 17 28 9 15 1010.4 1009.6 0.0
26/04:00pm 38.5 34.9 5.2 13 18.3 E 13 24 7 13 1010.5 1009.7 0.0
26/03:30pm 38.3 33.2 3.9 12 18.5 NNE 20 28 11 15 1010.8 1010.0 0.0
26/03:00pm 39.1 34.7 4.5 12 18.9 NNE 17 26 9 14 1011.3 1010.5 0.0
26/02:30pm 38.5 32.4 2.8 11 18.9 ENE 24 35 13 19 1011.9 1011.0 0.0
26/02:00pm 37.8 33.2 3.5 12 18.3 ENE 17 54 9 29 1012.4 1011.5 0.0
26/01:30pm 37.1 33.7 4.1 13 17.7 NNE 11 17 6 9 1012.9 1012.0 0.0
26/01:00pm 36.8 33.4 3.9 13 17.6 NNE 11 17 6 9 1013.5 1012.6 0.0
26/12:30pm 37.6 33.8 5.6 14 17.6 NNE 15 26 8 14 1014.2 1013.3 0.0
26/12:00pm 36.3 32.4 5.5 15 16.8 NNW 15 26 8 14 1014.8 1013.9 0.0
26/11:30am 35.9 32.6 6.2 16 16.4 N 13 24 7 13 1015.3 1014.5 0.0
26/11:00am 35.7 33.3 6.9 17 16.0 NNE 9 26 5 14 1015.7 1014.9 0.0
26/10:30am 34.6 30.6 6.8 18 15.3 NNE 17 30 9 16 1016.1 1015.3 0.0
26/10:00am 34.3 32.5 9.5 22 14.2 NNE 9 19 5 10 1016.2 1015.4 0.0
26/09:30am 32.0 31.2 11.2 28 12.2 N 6 11 3 6 1016.4 1015.6 0.0
26/09:00am 30.6 30.5 12.0 32 10.9 N 4 9 2 5 1016.4 1015.6 0.0
26/08:30am 29.3 29.5 13.1 37 9.6 NNE 4 7 2 4 1016.3 1015.5 0.0
26/08:00am 26.5 26.9 11.4 39 8.6 CALM 0 0 0 0 1016.0 1015.2 0.0
26/07:30am 24.6 24.7 10.1 40 8.0 CALM 0 0 0 0 1015.7 1014.9 0.0
26/07:00am 19.7 19.5 9.0 50 5.7 CALM 0 0 0 0 1015.4 1014.6 0.0
26/06:30am 17.7 17.2 7.7 52 5.1 CALM 0 0 0 0 1014.8 1013.9 0.0
26/06:00am 17.4 15.4 6.9 50 5.3 S 7 9 4 5 1014.4 1013.5 0.0
26/05:30am 17.9 16.4 7.0 49 5.5 ESE 4 7 2 4 1014.1 1013.2 0.0
26/05:00am 18.1 16.6 6.9 48 5.6 W 4 9 2 5 1013.8 1012.9 0.0
26/04:30am 18.2 16.2 6.4 46 5.9 SSW 6 9 3 5 1013.9 1013.0 0.0
26/04:00am 18.9 17.2 5.7 42 6.5 NNE 4 7 2 4 1013.6 1012.7 0.0
26/03:30am 18.4 16.7 5.9 44 6.2 SSE 4 9 2 5 1013.3 1012.4 0.0
26/03:00am 19.0 17.3 6.1 43 6.4 SSW 4 7 2 4 1013.3 1012.4 0.0
26/02:30am 19.4 18.4 5.5 40 6.9 CALM 0 0 0 0 1013.1 1012.2 0.0
26/02:00am 19.7 17.8 5.0 38 7.2 WSW 4 7 2 4 1013.0 1012.1 0.0
26/01:30am 20.6 19.4 4.6 35 7.8 CALM 0 0 0 0 1013.3 1012.4 0.0
26/01:00am 21.1 19.4 4.2 33 8.2 W 2 6 1 3 1013.6 1012.7 0.0
26/12:30am 21.7 20.4 4.3 32 8.5 CALM 0 0 0 0 1013.8 1012.9 0.0
26/12:00am 23.5 22.0 4.9 30 9.3 NE 2 6 1 3 1014.1 1013.2 0.0
 
Date/Time
EST
Temp
°C
App
Temp
°C
Dew
Point
Rel
Hum
%
Delta-T
°C
Wind Press
QNH
hPa
Press
MSL
hPa
Rain
since 9 am
mm
Dir
 
Spd
km/h
Gust
km/h
Spd
kts
Gust
kts
25/11:30pm 25.2 22.5 5.4 28 10.1 NW 9 11 5 6 1014.3 1013.4 0.0
25/11:00pm 23.0 20.9 1.9 25 10.0 NNE 2 7 1 4 1014.6 1013.7 0.0
25/10:30pm 23.1 21.0 2.0 25 10.0 SW 2 6 1 3 1014.4 1013.5 0.0
25/10:00pm 24.0 20.9 1.6 23 10.6 SW 7 9 4 5 1014.3 1013.4 0.0
25/09:30pm 24.5 21.4 1.4 22 10.9 SW 7 9 4 5 1014.2 1013.3 0.0
25/09:00pm 25.1 23.2 0.6 20 11.5 SSW 0 0 0 0 1014.3 1013.4 0.0
25/08:30pm 26.4 24.6 0.9 19 12.1 CALM 0 0 0 0 1014.1 1013.2 0.0
25/08:00pm 28.4 25.9 -0.7 15 13.6 E 2 6 1 3 1014.0 1013.1 0.0
25/07:30pm 31.2 28.0 -0.5 13 15.2 E 6 7 3 4 1013.7 1012.8 0.0
25/07:00pm 33.6 28.8 0.3 12 16.5 E 15 22 8 12 1013.5 1012.6 0.0
25/06:30pm 34.5 30.6 1.0 12 16.8 E 11 19 6 10 1013.1 1012.2 0.0
25/06:00pm 35.7 30.0 0.7 11 17.7 E 20 30 11 16 1012.7 1011.8 0.0
25/05:30pm 36.3 32.6 2.4 12 17.6 E 11 20 6 11 1012.5 1011.6 0.0
25/05:00pm 36.9 31.8 2.8 12 17.9 ENE 19 32 10 17 1012.3 1011.4 0.0
25/04:30pm 36.9 31.8 2.8 12 17.9 ENE 19 32 10 17 1012.2 1011.3 0.0
25/04:00pm 37.0 32.1 4.0 13 17.7 ESE 19 30 10 16 1012.5 1011.6 0.0
25/03:30pm 36.8 33.0 3.9 13 17.6 ESE 13 20 7 11 1012.9 1012.0 0.0
25/03:00pm 36.5 33.2 4.7 14 17.2 SSE 11 20 6 11 1013.3 1012.4 0.0
25/02:30pm 36.4 32.7 4.6 14 17.1 ESE 13 24 7 13 1013.9 1013.0 0.0
25/02:00pm 36.1 33.5 4.4 14 17.0 ESE 7 17 4 9 1014.4 1013.5 0.0
25/01:30pm 35.5 32.1 7.5 18 15.7 ESE 15 20 8 11 1014.8 1013.9 0.0
25/01:00pm 34.2 32.2 10.1 23 14.0 N 11 20 6 11 1015.4 1014.6 0.0
25/12:30pm 35.3 32.8 12.3 25 13.9 NNE 17 35 9 19 1016.2 1015.4 0.0
25/12:00pm 33.9 31.6 11.7 26 13.2 N 15 20 8 11 1016.7 1015.9 0.0
25/11:30am 33.6 30.8 13.1 29 12.4 NNE 20 28 11 15 1017.4 1016.6 0.0
25/11:00am 32.7 29.8 12.9 30 11.9 NNE 20 30 11 16 1017.8 1017.0 0.0
25/10:30am 32.2 29.3 12.9 31 11.6 NNE 20 28 11 15 1018.1 1017.3 0.0
25/10:00am 32.0 28.4 11.7 28 11.9 NE 22 32 12 17 1018.4 1017.6 0.0
25/09:30am 31.4 28.3 12.2 30 11.4 ENE 20 33 11 18 1018.7 1017.9 0.0
25/09:00am 30.1 26.8 11.6 32 10.8 NE 20 33 11 18 1018.7 1017.9 0.0
25/08:30am 29.7 27.8 11.7 33 10.5 ENE 13 22 7 12 1018.6 1017.8 0.0
25/08:00am 27.9 26.3 11.5 36 9.4 E 11 17 6 9 1018.5 1017.7 0.0
25/07:30am 25.1 25.7 12.0 44 7.5 CALM 0 0 0 0 1018.1 1017.3 0.0
25/07:00am 21.4 21.4 11.1 52 5.7 SSW 2 6 1 3 1017.7 1016.9 0.0
25/06:30am 20.4 18.7 11.1 55 5.1 SE 11 15 6 8 1017.2 1016.4 0.0
25/06:00am 19.2 17.8 11.0 59 4.5 E 9 17 5 9 1016.0 1015.2 0.0
25/05:30am 18.5 19.0 11.6 64 3.8 CALM 0 6 0 3 1015.1 1014.2 0.0
25/05:00am 19.1 18.2 11.4 61 4.2 SSW 7 9 4 5 1015.0 1014.1 0.0
25/04:30am 19.1 18.1 10.9 59 4.5 SW 7 9 4 5 1014.7 1013.8 0.0
25/04:00am 18.4 16.9 9.2 55 4.8 SW 7 7 4 4 1014.4 1013.5 0.0
25/03:30am 19.3 17.7 8.6 50 5.6 NE 7 9 4 5 1014.2 1013.3 0.0
25/03:00am 19.5 18.4 10.5 56 4.9 SW 7 11 4 6 1013.6 1012.7 0.0
25/02:30am 19.5 17.5 8.8 50 5.6 S 9 11 5 6 1013.8 1012.9 0.0
25/02:00am 19.2 18.2 5.6 41 6.7 CALM 0 0 0 0 1014.1 1013.2 0.0
25/01:30am 19.8 19.0 6.5 42 6.7 CALM 0 0 0 0 1014.2 1013.3 0.0
25/01:00am 20.2 19.0 4.7 36 7.6 CALM 0 0 0 0 1014.3 1013.4 0.0
25/12:30am 21.0 19.6 3.7 32 8.3 CALM 0 0 0 0 1014.5 1013.6 0.0
25/12:00am 21.6 19.8 3.3 30 8.8 ENE 2 6 1 3 1014.7 1013.8 0.0
 
Date/Time
EST
Temp
°C
App
Temp
°C
Dew
Point
Rel
Hum
%
Delta-T
°C
Wind Press
QNH
hPa
Press
MSL
hPa
Rain
since 9 am
mm
Dir
 
Spd
km/h
Gust
km/h
Spd
kts
Gust
kts
24/11:30pm 21.9 20.4 3.1 29 9.0 CALM 0 0 0 0 1014.8 1013.9 0.0
24/11:00pm 22.3 20.7 2.4 27 9.4 CALM 0 4 0 2 1015.0 1014.1 0.0
24/10:30pm 23.4 21.0 2.3 25 10.1 WNW 4 7 2 4 1015.0 1014.1 0.0
24/10:00pm 24.3 21.6 2.5 24 10.5 SW 6 7 3 4 1014.9 1014.0 0.0
24/09:30pm 24.3 22.6 1.9 23 10.7 CALM 0 6 0 3 1014.6 1013.7 0.0
24/09:00pm 25.1 22.2 1.3 21 11.3 SSE 6 6 3 3 1014.5 1013.6 0.0
24/08:30pm 27.8 24.8 0.5 17 13.0 E 6 7 3 4 1014.1 1013.2 0.0
24/08:00pm 30.5 27.3 1.0 15 14.5 E 7 11 4 6 1013.7 1012.8 0.0
24/07:30pm 32.0 28.1 1.2 14 15.3 E 11 17 6 9 1013.2 1012.3 0.0
24/07:00pm 32.7 29.3 1.7 14 15.6 E 9 15 5 8 1012.9 1012.0 0.0
24/06:30pm 34.2 30.0 1.9 13 16.5 E 13 20 7 11 1012.6 1011.7 0.0
24/06:00pm 35.4 30.8 1.7 12 17.2 E 15 22 8 12 1012.4 1011.5 0.0
24/05:30pm 36.0 30.7 2.1 12 17.5 E 19 30 10 16 1012.2 1011.3 0.0
24/05:00pm 36.6 31.4 2.6 12 17.8 E 19 26 10 14 1012.1 1011.2 0.0
24/04:30pm 36.9 32.1 2.8 12 17.9 E 17 30 9 16 1012.2 1011.3 0.0
24/04:00pm 37.0 32.5 4.0 13 17.7 E 17 32 9 17 1012.3 1011.4 0.0
24/03:30pm 37.3 32.4 4.3 13 17.8 E 19 35 10 19 1012.6 1011.7 0.0
24/03:00pm 36.8 33.4 5.9 15 17.0 ENE 13 20 7 11 1012.8 1011.9 0.0
24/02:30pm 36.6 31.8 5.8 15 16.9 E 20 41 11 22 1013.4 1012.5 0.0
24/02:00pm 36.8 32.7 7.8 17 16.4 NE 19 32 10 17 1013.8 1012.9 0.0
24/01:30pm 36.4 32.8 6.6 16 16.5 NE 15 22 8 12 1014.3 1013.4 0.0
24/01:00pm 35.2 32.5 10.3 22 14.5 N 15 20 8 11 1014.9 1014.0 0.0
24/12:30pm 35.2 33.0 10.9 23 14.3 N 13 17 7 9 1015.4 1014.6 0.0
24/12:00pm 34.3 31.6 10.2 23 14.0 E 15 28 8 15 1016.3 1015.5 0.0
24/11:30am 34.8 31.0 9.9 22 14.4 NE 20 28 11 15 1016.8 1016.0 0.0
24/11:00am 33.8 30.9 9.8 23 13.8 NNE 15 28 8 15 1017.1 1016.3 0.0
24/10:30am 33.3 29.7 10.0 24 13.4 NE 19 32 10 17 1017.4 1016.6 0.0
24/10:00am 32.3 28.7 10.4 26 12.6 ENE 20 30 11 16 1017.4 1016.6 0.0
24/09:30am 31.0 26.4 9.8 27 12.1 NE 24 35 13 19 1017.8 1017.0 0.0
24/09:00am 30.0 25.6 9.0 27 11.7 ENE 22 32 12 17 1017.8 1017.0 0.0
24/08:30am 29.8 25.2 5.8 22 12.7 E 19 26 10 14 1017.5 1016.7 0.0
24/08:00am 29.0 24.8 3.8 20 12.8 E 15 22 8 12 1017.1 1016.3 0.0
24/07:30am 27.9 23.8 2.2 19 12.6 E 13 24 7 13 1016.7 1015.9 0.0
24/07:00am 25.0 21.8 3.0 24 10.8 ESE 9 15 5 8 1016.1 1015.3 0.0
24/06:30am 22.8 19.6 2.8 27 9.6 SE 9 11 5 6 1015.7 1014.9 0.0
24/06:00am 21.8 18.6 3.0 29 9.0 SE 9 11 5 6 1015.2 1014.3 0.0
24/05:30am 21.7 18.8 2.4 28 9.1 ESE 7 9 4 5 1014.8 1013.9 0.0
24/05:00am 22.9 20.0 2.4 26 9.8 ESE 7 9 4 5 1014.5 1013.6 0.0
24/04:30am 24.1 20.8 2.3 24 10.5 ESE 9 11 5 6 1014.3 1013.4 0.0
24/04:00am 25.4 21.9 3.4 24 10.9 SE 11 15 6 8 1014.0 1013.1 0.0
24/03:30am 22.9 19.9 3.9 29 9.3 S 9 13 5 7 1014.0 1013.1 0.0
24/03:00am 19.9 16.8 3.6 34 7.8 S 9 11 5 6 1014.1 1013.2 0.0
24/02:30am 21.0 18.3 3.7 32 8.3 S 7 9 4 5 1014.1 1013.2 0.0
24/02:00am 21.3 18.2 3.5 31 8.6 SSE 9 11 5 6 1014.1 1013.2 0.0
24/01:30am 21.2 19.7 3.0 30 8.7 CALM 0 6 0 3 1014.2 1013.3 0.0
24/01:00am 22.8 20.9 2.8 27 9.6 NW 2 9 1 5 1014.3 1013.4 0.0
24/12:30am 23.5 20.7 2.9 26 10.0 NNW 7 9 4 5 1014.4 1013.5 0.0
24/12:00am 22.9 19.7 2.9 27 9.6 S 9 11 5 6 1014.6 1013.7 0.0
 
Date/Time
EST
Temp
°C
App
Temp
°C
Dew
Point
Rel
Hum
%
Delta-T
°C
Wind Press
QNH
hPa
Press
MSL
hPa
Rain
since 9 am
mm
Dir
 
Spd
km/h
Gust
km/h
Spd
kts
Gust
kts
23/11:30pm 23.0 20.7 2.5 26 9.8 SSW 4 7 2 4 1014.9 1014.0 0.0
23/11:00pm 22.9 20.1 2.9 27 9.6 SSW 7 9 4 5 1014.9 1014.0 0.0
23/10:30pm 22.7 19.8 2.8 27 9.5 S 7 9 4 5 1015.0 1014.1 0.0
23/10:00pm 23.4 20.4 2.3 25 10.1 S 7 9 4 5 1014.9 1014.0 0.0
23/09:30pm 24.0 21.0 2.2 24 10.4 S 7 7 4 4 1014.6 1013.7 0.0
23/09:00pm 24.8 21.9 1.7 22 11.0 SSE 6 7 3 4 1014.3 1013.4 0.0
23/08:30pm 25.9 23.7 1.2 20 11.8 ESE 2 6 1 3 1014.1 1013.2 0.0
23/08:00pm 27.8 24.8 0.5 17 13.0 S 6 7 3 4 1013.7 1012.8 0.0
23/07:30pm 30.6 27.3 0.1 14 14.7 E 7 9 4 5 1013.3 1012.4 0.0
23/07:00pm 32.1 28.4 0.2 13 15.6 E 9 11 5 6 1013.0 1012.1 0.0
23/06:30pm 33.7 28.9 0.4 12 16.5 E 15 24 8 13 1012.7 1011.8 0.0
23/06:00pm 34.7 30.4 1.1 12 17.0 ESE 13 17 7 9 1012.3 1011.4 0.0

Other Formats:

Comma delimited format used in spreadsheet applications
http://www.bom.gov.au/fwo/IDQ60801/IDQ60801.94261.axf

JavaScript Object Notation format (JSON) in row-major order
http://www.bom.gov.au/fwo/IDQ60801/IDQ60801.94261.json